Terminal Aerodrome Forecast
Issued by NWS

Home | Current Version | Previous Version | Text Only | Print | Product List | Glossary On
Versions: 1 2 3 4 5 6 7 8 9 10 11 12 13
000
FTUS42 TJSJ 010500
TAFISX
TAF
TISX 010524Z 0106/0206 00000KT P6SM SCT022
      TEMPO 0106/0110 BKN022
     FM011330 11012KT P6SM SCT025
     FM012300 08006KT P6SM FEW025=

USA.gov is the U.S. government's official web portal to all federal, state and local government web resources and services.